Tarrawarra, Victoria

8:38 AM AEST on May 25, 2015 (GMT +1000)
Coldstream Estate | | Change Station
CLOSE
Current Station
Personal Weather Station
Location: Coldstream, Victoria
Elevation: 300 ft
Nearby Weather Stations

Elev 300 ft 37.73 °S, 145.38 °E | Updated 1 second ago

Clear
Clear
44.1 °F
Feels Like 44 °F
N
0.0
Wind Variable Wind from NNE
Gusts 0.0 mph

Today
High -- | Low -- °F
--% Chance of Precip.
Yesterday
High -- | Low -- °F
Precip. -- in
7:18 AM 5:11 PM
Waxing Crescent, 43% visible
Pressure 30.45 in
Visibility 6.2 miles
Clouds
Windchill 44 °F
Dew Point 41 °F
Humidity 89%
Rainfall 0.00 in
Snow Depth Not available.
UV Not available.
Pollen Not available.
Air Quality Not available.
Flu Activity Not available.
METAR YMEN 242200Z AUTO 35008KT 9999 // NCD 10/06 Q1031

More Conditions Fewer Conditions

Pressure 30.45 in
Visibility 6.2 miles
Clouds
Windchill 44 °F
Dew Point 41 °F
Humidity 89%
Rainfall 0.00 in
Snow Depth Not available.
UV Not available.
Pollen Not available.
Air Quality Not available.
Flu Activity Not available.
METAR YMEN 242200Z AUTO 35008KT 9999 // NCD 10/06 Q1031

More Conditions Fewer Conditions

10-Day Weather Forecast

Almanac

Astronomy

May. 25, 2015 Rise Set
Actual Time
Civil Twilight
Nautical Twilight
Astronomical Twilight
Moon
Length of Visible Light
Length of Day
Tomorrow will be .
, % of the Moon is Illuminated

Today's Extremes

Country Highs Country Lows

Community

WunderPhotos

Upload Photos

1,823,885 photos uploaded!

WunderBlogs® & News

Nearby

Air Quality

  Air Quality AQ Index Pollutant
Not available.

Snow Depth

Station Depth Elevation

Earthquake Activity

City Distance Mag. Time & Date
Minimum magnitude displayed is 2.5.

Coastal Water Temperatures

Place Temperature

Stations

Nearby Weather Stations

Station Location Temp. Windchill Dew Point Humidity Wind Precip. Elev Updated Type